createdAt,value
2022-11-17T00:01:05.559Z,9.83
2022-11-17T00:03:27.015Z,9.78
2022-11-17T00:05:48.471Z,9.89
2022-11-17T00:08:09.925Z,9.82
2022-11-17T00:10:31.373Z,9.77
2022-11-17T00:13:11.609Z,9.72
2022-11-17T00:15:33.110Z,9.69
2022-11-17T00:18:12.950Z,9.71
2022-11-17T00:20:56.577Z,9.72
2022-11-17T00:23:18.030Z,9.66
2022-11-17T00:25:39.477Z,9.55
2022-11-17T00:28:00.941Z,9.59
2022-11-17T00:30:43.837Z,9.56
2022-11-17T00:33:23.959Z,9.58
2022-11-17T00:35:50.956Z,9.75
2022-11-17T00:38:15.435Z,9.74
2022-11-17T00:40:36.898Z,9.82
2022-11-17T00:42:58.409Z,9.83
2022-11-17T00:45:19.871Z,9.83
2022-11-17T00:47:42.807Z,9.78
2022-11-17T00:50:04.720Z,9.77
2022-11-17T00:52:26.216Z,9.91
2022-11-17T00:54:47.676Z,9.83
2022-11-17T00:57:09.114Z,9.93
2022-11-17T00:59:30.600Z,9.81
2022-11-17T01:01:52.212Z,9.73
2022-11-17T01:04:15.242Z,9.72
2022-11-17T01:06:44.742Z,9.57
2022-11-17T01:09:11.178Z,9.63
2022-11-17T01:11:32.886Z,9.42
2022-11-17T01:13:56.589Z,9.54
2022-11-17T01:16:19.328Z,9.58
2022-11-17T01:18:41.310Z,9.55
2022-11-17T01:21:08.982Z,9.62
2022-11-17T01:23:30.447Z,9.66
2022-11-17T01:25:51.903Z,9.72
2022-11-17T01:28:13.354Z,9.66
2022-11-17T01:30:34.878Z,9.64
2022-11-17T01:32:56.344Z,9.64
2022-11-17T01:35:17.783Z,9.65
2022-11-17T01:37:39.260Z,9.74
2022-11-17T01:40:00.719Z,9.70
2022-11-17T01:42:24.418Z,9.86
2022-11-17T01:44:59.558Z,10.06
2022-11-17T01:47:23.011Z,10.03
2022-11-17T01:49:45.547Z,10.13
2022-11-17T01:52:10.365Z,9.99
2022-11-17T01:54:33.945Z,9.98
2022-11-17T01:57:02.581Z,10.01
2022-11-17T01:59:39.744Z,9.92
2022-11-17T02:02:01.492Z,9.98
2022-11-17T02:04:30.458Z,10.03
2022-11-17T02:06:58.014Z,10.10
2022-11-17T02:09:20.985Z,10.05
2022-11-17T02:11:42.504Z,9.93
2022-11-17T02:14:05.407Z,10.04
2022-11-17T02:16:26.855Z,9.98
2022-11-17T02:18:49.028Z,9.89
2022-11-17T02:21:28.962Z,9.99
2022-11-17T02:24:17.433Z,9.97
2022-11-17T02:26:47.846Z,10.15
2022-11-17T02:29:41.918Z,10.02
2022-11-17T02:32:15.803Z,10.14
2022-11-17T02:35:09.340Z,10.04
2022-11-17T02:37:42.536Z,9.96
2022-11-17T02:40:30.885Z,9.87
2022-11-17T02:43:25.247Z,10.04
2022-11-17T02:46:09.321Z,10.03
2022-11-17T02:48:38.753Z,9.98
2022-11-17T02:51:01.949Z,10.02
2022-11-17T02:53:25.538Z,10.13
2022-11-17T02:55:53.970Z,10.08
2022-11-17T02:58:15.450Z,10.04
2022-11-17T03:00:46.263Z,10.02
2022-11-17T03:03:26.569Z,10.04
2022-11-17T03:06:25.315Z,9.94
2022-11-17T03:08:46.743Z,9.93
2022-11-17T03:11:09.153Z,9.82
2022-11-17T03:13:40.499Z,9.81
2022-11-17T03:16:25.121Z,9.83
2022-11-17T03:19:26.643Z,9.60
2022-11-17T03:21:51.071Z,9.82
2022-11-17T03:24:29.815Z,9.72
2022-11-17T03:26:55.462Z,9.79
2022-11-17T03:29:20.123Z,9.83
2022-11-17T03:31:45.536Z,9.86
2022-11-17T03:34:10.110Z,9.74
2022-11-17T03:36:40.090Z,9.77
2022-11-17T03:39:08.446Z,9.93
2022-11-17T03:41:36.133Z,9.83
2022-11-17T03:44:00.295Z,9.74
2022-11-17T03:46:23.275Z,9.78
2022-11-17T03:48:56.877Z,9.60
2022-11-17T03:51:23.028Z,9.63
2022-11-17T03:53:46.197Z,9.52
2022-11-17T03:56:16.689Z,9.54
2022-11-17T03:58:53.874Z,9.72
2022-11-17T04:01:16.315Z,9.62
2022-11-17T04:03:38.343Z,9.80
2022-11-17T04:06:00.615Z,9.88
2022-11-17T04:08:24.037Z,9.71
2022-11-17T04:11:04.159Z,9.69
2022-11-17T04:13:44.189Z,9.82
2022-11-17T04:16:05.869Z,9.87
2022-11-17T04:18:27.460Z,9.86
2022-11-17T04:20:54.374Z,9.94
2022-11-17T04:23:16.040Z,9.85
2022-11-17T04:26:01.748Z,9.84
2022-11-17T04:28:37.016Z,9.78
2022-11-17T04:30:58.435Z,9.68
2022-11-17T04:33:19.889Z,9.64
2022-11-17T04:35:41.317Z,9.73
2022-11-17T04:38:02.761Z,9.84
2022-11-17T04:40:24.199Z,9.94
2022-11-17T04:42:45.671Z,9.90
2022-11-17T04:45:07.629Z,9.68
2022-11-17T04:47:29.043Z,9.64
2022-11-17T04:49:50.503Z,9.81
2022-11-17T04:52:11.933Z,9.66
2022-11-17T04:54:33.421Z,9.80
2022-11-17T04:56:55.880Z,9.83
2022-11-17T04:59:18.122Z,9.70
2022-11-17T05:01:39.723Z,9.71
2022-11-17T05:04:03.981Z,9.88
2022-11-17T05:06:34.317Z,9.86
2022-11-17T05:08:56.680Z,9.84
2022-11-17T05:11:37.116Z,9.78
2022-11-17T05:13:59.099Z,9.94
2022-11-17T05:16:40.249Z,9.93
2022-11-17T05:19:01.896Z,9.95
2022-11-17T05:21:23.323Z,9.97
2022-11-17T05:23:56.716Z,9.96
2022-11-17T05:26:18.829Z,10.06
2022-11-17T05:28:40.285Z,10.14
2022-11-17T05:31:01.705Z,10.07
2022-11-17T05:33:23.137Z,9.96
2022-11-17T05:35:44.565Z,9.96
2022-11-17T05:38:06.032Z,9.82
2022-11-17T05:40:27.472Z,9.85
2022-11-17T05:42:52.965Z,10.00
2022-11-17T05:45:17.364Z,9.82
2022-11-17T05:47:38.825Z,10.03
2022-11-17T05:50:00.354Z,9.92
2022-11-17T05:52:21.822Z,9.99
2022-11-17T05:54:43.283Z,9.77
2022-11-17T05:57:10.465Z,9.84
2022-11-17T05:59:43.098Z,9.73
2022-11-17T06:02:12.961Z,9.80
2022-11-17T06:04:34.774Z,9.83
2022-11-17T06:07:00.251Z,9.95
2022-11-17T06:09:21.777Z,10.12
2022-11-17T06:11:43.571Z,9.89
2022-11-17T06:14:05.042Z,9.87
2022-11-17T06:16:31.352Z,10.10
2022-11-17T06:19:00.670Z,9.96
2022-11-17T06:21:22.480Z,9.87
2022-11-17T06:23:45.505Z,10.10
2022-11-17T06:26:09.584Z,10.04
2022-11-17T06:28:33.115Z,10.01
2022-11-17T06:30:55.346Z,10.04
2022-11-17T06:33:19.196Z,9.90
2022-11-17T06:35:42.352Z,9.81
2022-11-17T06:38:03.859Z,9.82
2022-11-17T06:40:26.117Z,9.89
2022-11-17T06:43:06.266Z,10.06
2022-11-17T06:45:27.731Z,9.89
2022-11-17T06:47:49.179Z,9.98
2022-11-17T06:50:10.775Z,10.21
2022-11-17T06:52:32.233Z,10.24
2022-11-17T06:54:53.694Z,9.96
2022-11-17T06:57:15.130Z,9.83
2022-11-17T06:59:36.567Z,9.86
2022-11-17T07:01:58.042Z,9.92
2022-11-17T07:04:19.483Z,10.09
2022-11-17T07:06:40.939Z,10.02
2022-11-17T07:09:02.414Z,10.24
2022-11-17T07:11:23.847Z,10.10
2022-11-17T07:13:45.431Z,10.15
2022-11-17T07:16:11.934Z,10.26
2022-11-17T07:18:34.436Z,10.27
2022-11-17T07:20:56.107Z,10.34
2022-11-17T07:23:17.579Z,10.27
2022-11-17T07:25:39.352Z,10.34
2022-11-17T07:28:00.848Z,10.24
2022-11-17T07:30:22.265Z,9.98
2022-11-17T07:32:43.734Z,10.05
2022-11-17T07:35:05.986Z,10.04
2022-11-17T07:37:33.460Z,10.17
2022-11-17T07:39:54.887Z,10.25
2022-11-17T07:42:16.316Z,10.37
2022-11-17T07:44:37.849Z,10.39
2022-11-17T07:46:59.346Z,10.41
2022-11-17T07:49:20.856Z,10.37
2022-11-17T07:51:42.348Z,10.37
2022-11-17T07:54:03.889Z,10.52
2022-11-17T07:56:25.383Z,10.42
2022-11-17T07:58:46.855Z,10.58
2022-11-17T08:01:16.313Z,10.56
2022-11-17T08:03:37.936Z,10.48
2022-11-17T08:06:07.137Z,10.58
2022-11-17T08:08:28.891Z,10.68
2022-11-17T08:10:50.301Z,10.61
2022-11-17T08:13:12.818Z,10.82
2022-11-17T08:15:35.258Z,10.74
2022-11-17T08:17:59.298Z,10.67
2022-11-17T08:20:21.932Z,10.82
2022-11-17T08:22:44.179Z,10.66
2022-11-17T08:25:06.084Z,10.45
2022-11-17T08:27:27.578Z,10.57
2022-11-17T08:29:49.049Z,10.73
2022-11-17T08:32:10.472Z,10.67
2022-11-17T08:34:32.171Z,10.62
2022-11-17T08:36:53.592Z,10.68
2022-11-17T08:39:15.460Z,10.85
2022-11-17T08:41:36.907Z,10.98
2022-11-17T08:43:58.549Z,11.05
2022-11-17T08:46:20.063Z,11.20
2022-11-17T08:48:41.602Z,11.25
2022-11-17T08:51:07.874Z,11.13
2022-11-17T08:53:29.337Z,11.27
2022-11-17T08:55:51.854Z,11.31
2022-11-17T08:58:13.668Z,11.27
2022-11-17T09:00:35.356Z,11.19
2022-11-17T09:02:56.890Z,11.29
2022-11-17T09:05:18.323Z,11.39
2022-11-17T09:07:39.934Z,11.53
2022-11-17T09:10:02.317Z,11.68
2022-11-17T09:12:26.499Z,11.71
2022-11-17T09:14:47.971Z,11.63
2022-11-17T09:17:09.707Z,11.69
2022-11-17T09:19:31.151Z,11.53
2022-11-17T09:21:52.619Z,11.77
2022-11-17T09:24:14.091Z,11.81
2022-11-17T09:26:35.898Z,12.11
2022-11-17T09:29:01.861Z,12.43
2022-11-17T09:31:23.599Z,12.72
2022-11-17T09:33:45.553Z,12.92
2022-11-17T09:36:07.809Z,12.92
2022-11-17T09:38:29.303Z,12.92
2022-11-17T09:40:51.211Z,12.82
2022-11-17T09:43:25.661Z,12.87
2022-11-17T09:45:48.404Z,12.87
2022-11-17T09:48:40.239Z,12.75
2022-11-17T09:51:00.842Z,12.90
2022-11-17T09:53:29.254Z,12.84
2022-11-17T09:56:02.287Z,12.94
2022-11-17T09:58:32.850Z,12.85
2022-11-17T10:00:55.647Z,13.08
2022-11-17T10:03:20.427Z,13.32
2022-11-17T10:05:41.925Z,13.26
2022-11-17T10:08:08.414Z,13.19
2022-11-17T10:10:41.589Z,13.32
2022-11-17T10:13:05.273Z,13.41
2022-11-17T10:15:33.440Z,13.47
2022-11-17T10:17:55.114Z,13.24
2022-11-17T10:20:19.012Z,13.00
2022-11-17T10:22:41.222Z,13.23
2022-11-17T10:25:02.828Z,13.13
2022-11-17T10:27:33.218Z,13.23
2022-11-17T10:30:20.016Z,13.23
2022-11-17T10:32:50.385Z,12.85
2022-11-17T10:35:27.261Z,12.74
2022-11-17T10:38:06.876Z,12.75
2022-11-17T10:40:33.704Z,12.49
2022-11-17T10:43:02.897Z,12.63
2022-11-17T10:45:24.925Z,12.47
2022-11-17T10:47:46.461Z,12.53
2022-11-17T10:50:28.194Z,12.69
2022-11-17T10:52:51.919Z,12.46
2022-11-17T10:55:28.868Z,12.55
2022-11-17T10:57:58.540Z,12.48
2022-11-17T11:00:32.523Z,12.33
2022-11-17T11:03:06.219Z,12.31
2022-11-17T11:05:27.808Z,12.32
2022-11-17T11:07:49.341Z,12.35
2022-11-17T11:10:23.604Z,12.10
2022-11-17T11:12:54.002Z,12.26
2022-11-17T11:15:20.590Z,12.42
2022-11-17T11:17:42.090Z,12.35
2022-11-17T11:20:04.359Z,12.24
2022-11-17T11:22:43.151Z,12.16
2022-11-17T11:25:33.061Z,12.19
2022-11-17T11:28:35.731Z,12.25
2022-11-17T11:31:24.299Z,12.26
2022-11-17T11:34:10.357Z,12.15
2022-11-17T11:36:39.600Z,12.21
2022-11-17T11:39:13.175Z,12.40
2022-11-17T11:42:08.305Z,12.58
2022-11-17T11:44:35.944Z,12.39
2022-11-17T11:47:00.456Z,12.32
2022-11-17T11:49:43.375Z,12.10
2022-11-17T11:52:10.627Z,11.77
2022-11-17T11:54:46.322Z,11.83
2022-11-17T11:57:16.717Z,11.84
2022-11-17T11:59:48.382Z,11.91
2022-11-17T12:02:12.640Z,11.88
2022-11-17T12:04:44.821Z,11.93
2022-11-17T12:07:20.298Z,12.08
2022-11-17T12:09:49.548Z,11.93
2022-11-17T12:12:33.637Z,12.02
2022-11-17T12:15:13.657Z,11.74
2022-11-17T12:17:36.047Z,11.96
2022-11-17T12:20:02.602Z,11.82
2022-11-17T12:22:28.875Z,11.89
2022-11-17T12:24:57.439Z,11.89
2022-11-17T12:27:33.932Z,11.81
2022-11-17T12:29:55.372Z,12.04
2022-11-17T12:32:44.552Z,12.05
2022-11-17T12:35:24.825Z,12.13
2022-11-17T12:37:46.252Z,12.10
2022-11-17T12:40:08.965Z,11.93
2022-11-17T12:42:33.038Z,11.86
2022-11-17T12:45:02.385Z,11.71
2022-11-17T12:47:27.139Z,11.74
2022-11-17T12:49:57.668Z,11.69
2022-11-17T12:52:54.313Z,11.60
2022-11-17T12:55:26.387Z,11.30
2022-11-17T12:57:54.962Z,11.33
2022-11-17T13:00:23.263Z,11.14
2022-11-17T13:02:56.215Z,10.85
2022-11-17T13:05:20.980Z,10.70
2022-11-17T13:07:42.414Z,10.97
2022-11-17T13:10:04.166Z,11.30
2022-11-17T13:12:33.548Z,11.71
2022-11-17T13:15:00.138Z,12.04
2022-11-17T13:17:39.671Z,12.39
2022-11-17T13:20:26.816Z,12.71
2022-11-17T13:23:06.694Z,12.88
2022-11-17T13:25:28.288Z,13.01
2022-11-17T13:27:56.020Z,13.08
2022-11-17T13:30:28.799Z,13.04
2022-11-17T13:32:51.673Z,13.05
2022-11-17T13:35:27.459Z,12.88
2022-11-17T13:38:24.144Z,12.87
2022-11-17T13:40:46.586Z,12.99
2022-11-17T13:43:13.419Z,12.87
2022-11-17T13:45:34.939Z,12.75
2022-11-17T13:47:58.255Z,12.73
2022-11-17T13:50:27.022Z,12.60
2022-11-17T13:52:54.681Z,12.40
2022-11-17T13:55:20.134Z,12.46
2022-11-17T13:57:57.966Z,12.91
2022-11-17T14:00:19.730Z,13.35
2022-11-17T14:02:53.161Z,13.74
2022-11-17T14:05:23.124Z,13.93
2022-11-17T14:07:45.557Z,14.04
2022-11-17T14:10:20.604Z,13.90
2022-11-17T14:12:42.044Z,14.04
2022-11-17T14:15:33.101Z,14.06
2022-11-17T14:17:57.114Z,14.25
2022-11-17T14:20:38.813Z,13.99
2022-11-17T14:23:18.078Z,13.84
2022-11-17T14:25:42.253Z,13.82
2022-11-17T14:28:03.745Z,13.84
2022-11-17T14:30:25.434Z,13.83
2022-11-17T14:32:46.857Z,13.71
2022-11-17T14:35:13.251Z,13.74
2022-11-17T14:37:34.760Z,13.78
2022-11-17T14:39:56.168Z,13.64
2022-11-17T14:42:17.589Z,13.48
2022-11-17T14:44:39.047Z,13.48
2022-11-17T14:47:00.472Z,13.48
2022-11-17T14:49:21.901Z,13.45
2022-11-17T14:51:43.340Z,13.56
2022-11-17T14:54:04.883Z,13.58
2022-11-17T14:56:26.372Z,13.63
2022-11-17T14:58:52.440Z,13.40
2022-11-17T15:01:16.189Z,13.40
2022-11-17T15:03:40.323Z,13.38
2022-11-17T15:06:05.786Z,13.29
2022-11-17T15:08:27.244Z,13.25
2022-11-17T15:10:48.943Z,13.15
2022-11-17T15:13:10.420Z,13.04
2022-11-17T15:15:33.171Z,12.90
2022-11-17T15:17:54.822Z,12.70
2022-11-17T15:20:16.746Z,12.63
2022-11-17T15:22:38.179Z,12.64
2022-11-17T15:24:59.744Z,12.50
2022-11-17T15:27:21.212Z,12.42
2022-11-17T15:29:42.711Z,12.31
2022-11-17T15:32:04.582Z,12.20
2022-11-17T15:34:26.135Z,12.16
2022-11-17T15:36:48.477Z,12.04
2022-11-17T15:39:10.885Z,12.10
2022-11-17T15:41:33.237Z,11.95
2022-11-17T15:43:55.302Z,11.69
2022-11-17T15:46:18.325Z,11.65
2022-11-17T15:48:43.117Z,11.47
2022-11-17T15:51:05.088Z,11.42
2022-11-17T15:53:32.160Z,11.29
2022-11-17T15:55:53.581Z,11.25
2022-11-17T15:58:15.928Z,11.20
2022-11-17T16:00:40.174Z,11.26
2022-11-17T16:03:01.881Z,11.18
2022-11-17T16:05:23.357Z,11.19
2022-11-17T16:10:07.533Z,11.13
2022-11-17T16:12:28.991Z,11.09
2022-11-17T16:14:50.471Z,11.09
2022-11-17T16:17:11.887Z,11.08
2022-11-17T16:19:33.373Z,11.02
2022-11-17T16:21:54.874Z,11.07
2022-11-17T16:24:16.347Z,11.12
2022-11-17T16:26:37.805Z,11.15
2022-11-17T16:29:01.774Z,11.05
2022-11-17T16:31:25.725Z,11.08
2022-11-17T16:33:58.877Z,10.99
2022-11-17T16:36:22.814Z,11.17
2022-11-17T16:38:59.883Z,11.33
2022-11-17T16:41:23.467Z,11.30
2022-11-17T16:43:45.099Z,11.30
2022-11-17T16:46:16.979Z,11.39
2022-11-17T16:48:38.412Z,11.31
2022-11-17T16:51:07.411Z,11.34
2022-11-17T16:53:28.848Z,11.16
2022-11-17T16:55:50.259Z,11.26
2022-11-17T16:58:11.777Z,11.29
2022-11-17T17:00:37.528Z,11.19
2022-11-17T17:02:59.047Z,11.17
2022-11-17T17:05:20.567Z,11.03
2022-11-17T17:07:42.105Z,11.11
2022-11-17T17:10:03.767Z,11.15
2022-11-17T17:12:25.437Z,11.07
2022-11-17T17:14:46.921Z,11.10
2022-11-17T17:17:08.321Z,11.11
2022-11-17T17:19:29.769Z,11.08
2022-11-17T17:21:51.301Z,10.95
2022-11-17T17:24:12.995Z,10.97
2022-11-17T17:26:35.897Z,11.03
2022-11-17T17:29:00.251Z,10.96
2022-11-17T17:31:23.133Z,11.04
2022-11-17T17:33:45.051Z,10.97
2022-11-17T17:36:25.993Z,11.03
2022-11-17T17:38:54.657Z,11.08
2022-11-17T17:41:19.424Z,11.15
2022-11-17T17:43:42.516Z,11.05
2022-11-17T17:46:08.450Z,10.98
2022-11-17T17:48:34.423Z,10.99
2022-11-17T17:51:01.504Z,10.96
2022-11-17T17:53:25.173Z,10.98
2022-11-17T17:55:46.577Z,11.01
2022-11-17T17:58:08.631Z,10.97
2022-11-17T18:00:30.149Z,10.96
2022-11-17T18:02:51.670Z,10.78
2022-11-17T18:05:13.388Z,10.87
2022-11-17T18:07:34.866Z,10.79
2022-11-17T18:09:56.384Z,10.65
2022-11-17T18:12:17.817Z,10.72
2022-11-17T18:14:39.341Z,10.75
2022-11-17T18:17:00.782Z,10.75
2022-11-17T18:19:25.732Z,10.81
2022-11-17T18:21:49.895Z,10.67
2022-11-17T18:24:12.572Z,10.74
2022-11-17T18:26:36.011Z,10.90
2022-11-17T18:29:02.834Z,10.82
2022-11-17T18:31:26.835Z,10.87
2022-11-17T18:33:56.146Z,10.87
2022-11-17T18:36:17.685Z,10.86
2022-11-17T18:38:39.319Z,10.89
2022-11-17T18:41:03.625Z,10.89
2022-11-17T18:43:25.065Z,10.75
2022-11-17T18:45:46.518Z,10.85
2022-11-17T18:48:08.031Z,10.95
2022-11-17T18:50:29.514Z,10.77
2022-11-17T18:52:51.025Z,10.76
2022-11-17T18:55:12.471Z,10.76
2022-11-17T18:57:33.971Z,10.72
2022-11-17T18:59:55.413Z,10.59
2022-11-17T19:02:16.886Z,10.53
2022-11-17T19:04:38.441Z,10.41
2022-11-17T19:07:00.874Z,10.42
2022-11-17T19:09:22.428Z,10.40
2022-11-17T19:11:43.883Z,10.35
2022-11-17T19:14:05.537Z,10.56
2022-11-17T19:16:27.086Z,10.71
2022-11-17T19:18:50.753Z,10.62
2022-11-17T19:21:14.816Z,10.59
2022-11-17T19:23:38.599Z,10.57
2022-11-17T19:26:04.158Z,10.49
2022-11-17T19:28:25.607Z,10.52
2022-11-17T19:30:47.031Z,10.51
2022-11-17T19:33:08.486Z,10.53
2022-11-17T19:35:29.944Z,10.64
2022-11-17T19:37:51.389Z,10.72
2022-11-17T19:40:12.944Z,10.60
2022-11-17T19:42:34.389Z,10.77
2022-11-17T19:44:55.829Z,10.82
2022-11-17T19:47:17.941Z,10.72
2022-11-17T19:49:39.393Z,10.60
2022-11-17T19:52:00.853Z,10.60
2022-11-17T19:54:22.322Z,10.54
2022-11-17T19:56:43.827Z,10.47
2022-11-17T19:59:06.321Z,10.54
2022-11-17T20:01:30.106Z,10.57
2022-11-17T20:03:52.274Z,10.61
2022-11-17T20:06:16.589Z,10.44
2022-11-17T20:08:39.052Z,10.21
2022-11-17T20:11:14.985Z,10.30
2022-11-17T20:13:37.507Z,10.28
2022-11-17T20:16:00.307Z,10.16
2022-11-17T20:18:21.746Z,9.99
2022-11-17T20:20:43.243Z,9.92
2022-11-17T20:23:04.810Z,9.68
2022-11-17T20:25:26.263Z,9.56
2022-11-17T20:27:47.684Z,9.60
2022-11-17T20:30:14.830Z,9.71
2022-11-17T20:32:37.133Z,9.55
2022-11-17T20:34:58.998Z,9.33
2022-11-17T20:37:20.450Z,9.37
2022-11-17T20:39:41.883Z,9.56
2022-11-17T20:42:03.415Z,9.49
2022-11-17T20:44:24.899Z,9.48
2022-11-17T20:46:46.306Z,9.49
2022-11-17T20:49:07.738Z,9.50
2022-11-17T20:51:29.451Z,9.58
2022-11-17T20:53:51.189Z,9.68
2022-11-17T20:56:14.535Z,9.58
2022-11-17T20:58:36.798Z,9.35
2022-11-17T21:00:58.618Z,9.38
2022-11-17T21:03:20.682Z,9.32
2022-11-17T21:05:42.270Z,9.35
2022-11-17T21:08:03.935Z,9.28
2022-11-17T21:10:25.386Z,9.24
2022-11-17T21:12:46.830Z,9.37
2022-11-17T21:15:08.790Z,9.26
2022-11-17T21:17:48.888Z,8.90
2022-11-17T21:20:11.150Z,9.10
2022-11-17T21:22:32.626Z,8.78
2022-11-17T21:24:54.093Z,8.85
2022-11-17T21:27:19.683Z,8.84
2022-11-17T21:29:41.137Z,8.79
2022-11-17T21:32:02.627Z,8.70
2022-11-17T21:34:24.143Z,8.78
2022-11-17T21:36:46.248Z,8.71
2022-11-17T21:39:07.765Z,8.60
2022-11-17T21:41:31.623Z,8.53
2022-11-17T21:43:54.785Z,8.63
2022-11-17T21:46:21.147Z,8.72
2022-11-17T21:48:42.977Z,8.67
2022-11-17T21:51:06.086Z,8.67
2022-11-17T21:53:27.968Z,8.67
2022-11-17T21:55:49.424Z,8.61
2022-11-17T21:58:11.159Z,8.34
2022-11-17T22:00:32.880Z,8.46
2022-11-17T22:02:54.770Z,8.53
2022-11-17T22:05:16.318Z,8.45
2022-11-17T22:07:37.785Z,8.24
2022-11-17T22:09:59.237Z,8.35
2022-11-17T22:12:20.661Z,8.37
2022-11-17T22:14:42.117Z,8.39
2022-11-17T22:17:03.584Z,8.35
2022-11-17T22:19:28.291Z,8.30
2022-11-17T22:21:51.905Z,8.35
2022-11-17T22:24:13.525Z,8.36
2022-11-17T22:26:38.536Z,8.32
2022-11-17T22:29:00.255Z,8.32
2022-11-17T22:31:22.711Z,8.33
2022-11-17T22:33:48.647Z,8.29
2022-11-17T22:36:10.218Z,8.31
2022-11-17T22:38:31.972Z,8.36
2022-11-17T22:41:02.077Z,8.27
2022-11-17T22:43:23.504Z,8.16
2022-11-17T22:45:44.941Z,8.13
2022-11-17T22:48:07.489Z,8.20
2022-11-17T22:50:29.046Z,8.08
2022-11-17T22:52:50.469Z,8.15
2022-11-17T22:55:12.230Z,7.96
2022-11-17T22:57:33.658Z,8.10
2022-11-17T22:59:55.712Z,8.21
2022-11-17T23:02:17.162Z,8.22
2022-11-17T23:04:38.632Z,8.43
2022-11-17T23:07:00.194Z,8.49
2022-11-17T23:09:21.807Z,8.62
2022-11-17T23:11:43.674Z,8.59
2022-11-17T23:14:11.534Z,8.48
2022-11-17T23:16:33.168Z,8.61
2022-11-17T23:18:56.080Z,8.75
2022-11-17T23:21:17.526Z,8.75
2022-11-17T23:23:40.308Z,8.78
2022-11-17T23:26:09.555Z,8.89
2022-11-17T23:28:31.255Z,8.92
2022-11-17T23:30:58.330Z,8.96
2022-11-17T23:33:19.816Z,8.98
2022-11-17T23:35:41.253Z,8.91
2022-11-17T23:38:02.715Z,9.00
2022-11-17T23:40:24.865Z,8.91
2022-11-17T23:42:46.335Z,8.87
2022-11-17T23:45:08.554Z,8.88
2022-11-17T23:47:30.102Z,8.99
2022-11-17T23:49:51.586Z,9.16
2022-11-17T23:52:13.007Z,9.16
2022-11-17T23:54:34.465Z,9.14
2022-11-17T23:56:55.881Z,9.13
2022-11-17T23:59:17.432Z,9.12
